Pagrindinis puslapis
METAR-TAF:

METAR-TAF

Oro uostai :

St. George, Aliaska, Jungtinės Amerikos Valstijos

platuma: 56-34-43N, ilguma: 169-39-41W, Aukštis: 38 m

Dabartinis oras

Ataskaita buvo paskelbta 54 minutes, ne 05:53 UTC
Vėjas 23 kt iš Pietų/Pietryčių su gūsio iki 28 kt
Temperatūra 3°C
Drėgmė 75%
Slėgis 1019 hPa
Matomumas: 16.1 km
Apsiniaukę ne aukštis 3600 ft

METAR: PAPB 100553Z AUTO 16023G28KT 10SM OVC036 03/M01 A3008 RMK AO2 PK WND 17028/0553 SLP173 60000 T00331006 10039 20022 58006 TSNO

Laikas: 22:47 (06:47 UTC)


TAF: trūkstamas

Orai ataskaitas ir orų prognozės (METAR, TAF).

turimą stotys yra geltonos ir raudonos taškus žemėlapyje.

Perkelti pele per norėdami pamatyti stoties vardą.

Tada spustelėkite, norėdami matyti oro stebėjimo ir prognozės.

Norėdami pakeisti žemėlapį: spustelėkite ant žalios mygtukų su juodo kryžiaus žemyn,; žalią mygtuką su brūkšneliu, jei norite nutolinti; arba žalių rodyklių gretimoms žemėlapius.


METAR-TAF: